createdAt,value
2023-05-12T00:00:57.160Z,3.30
2023-05-12T00:03:26.035Z,3.17
2023-05-12T00:05:54.487Z,3.00
2023-05-12T00:08:23.210Z,2.75
2023-05-12T00:10:51.943Z,3.38
2023-05-12T00:13:23.720Z,3.30
2023-05-12T00:15:52.327Z,3.20
2023-05-12T00:18:20.330Z,3.17
2023-05-12T00:20:49.037Z,3.10
2023-05-12T00:23:41.835Z,3.42
2023-05-12T00:26:10.329Z,4.40
2023-05-12T00:28:38.702Z,3.75
2023-05-12T00:31:07.130Z,3.55
2023-05-12T00:33:35.120Z,2.83
2023-05-12T00:36:04.264Z,3.38
2023-05-12T00:38:34.259Z,3.35
2023-05-12T00:41:02.742Z,3.22
2023-05-12T00:43:31.990Z,3.17
2023-05-12T00:46:02.455Z,3.22
2023-05-12T00:48:30.641Z,3.50
2023-05-12T00:51:00.183Z,4.28
2023-05-12T00:53:41.131Z,3.83
2023-05-12T00:56:18.518Z,3.58
2023-05-12T00:58:47.315Z,3.42
2023-05-12T01:01:17.075Z,7.20
2023-05-12T01:03:46.886Z,3.40
2023-05-12T01:06:33.288Z,3.65
2023-05-12T01:09:01.931Z,3.42
2023-05-12T01:11:30.688Z,3.22
2023-05-12T01:13:58.994Z,3.45
2023-05-12T01:16:33.858Z,3.20
2023-05-12T01:19:06.477Z,3.83
2023-05-12T01:21:37.203Z,3.97
2023-05-12T01:24:08.648Z,3.70
2023-05-12T01:26:38.374Z,3.50
2023-05-12T01:29:07.396Z,4.32
2023-05-12T01:31:36.011Z,3.55
2023-05-12T01:34:04.776Z,3.42
2023-05-12T01:36:33.458Z,3.53
2023-05-12T01:39:01.775Z,3.85
2023-05-12T01:41:30.527Z,3.28
2023-05-12T01:43:59.067Z,3.30
2023-05-12T01:46:27.852Z,3.30
2023-05-12T01:48:59.418Z,3.55
2023-05-12T01:51:28.551Z,3.33
2023-05-12T01:53:58.240Z,3.55
2023-05-12T01:56:29.314Z,3.10
2023-05-12T01:58:57.747Z,3.10
2023-05-12T02:01:28.891Z,3.97
2023-05-12T02:03:59.346Z,3.50
2023-05-12T02:06:29.528Z,3.33
2023-05-12T02:08:58.383Z,3.10
2023-05-12T02:11:26.592Z,3.20
2023-05-12T02:13:54.754Z,3.40
2023-05-12T02:16:23.547Z,3.35
2023-05-12T02:18:52.250Z,3.55
2023-05-12T02:21:21.698Z,3.63
2023-05-12T02:23:51.897Z,3.47
2023-05-12T02:26:20.240Z,3.17
2023-05-12T02:28:49.396Z,3.50
2023-05-12T02:31:18.193Z,3.42
2023-05-12T02:33:46.924Z,3.45
2023-05-12T02:36:17.128Z,3.33
2023-05-12T02:38:45.331Z,3.30
2023-05-12T02:41:13.932Z,3.33
2023-05-12T02:43:42.058Z,3.33
2023-05-12T02:46:10.726Z,3.47
2023-05-12T02:48:38.948Z,3.40
2023-05-12T02:51:07.850Z,3.75
2023-05-12T02:53:35.973Z,3.40
2023-05-12T02:56:04.634Z,3.35
2023-05-12T02:58:33.084Z,3.10
2023-05-12T03:01:10.228Z,3.85
2023-05-12T03:03:39.879Z,3.55
2023-05-12T03:06:08.622Z,3.25
2023-05-12T03:08:36.779Z,3.22
2023-05-12T03:11:05.722Z,3.33
2023-05-12T03:13:33.996Z,4.95
2023-05-12T03:16:02.372Z,4.32
2023-05-12T03:18:31.608Z,3.60
2023-05-12T03:20:59.933Z,3.78
2023-05-12T03:23:27.967Z,3.35
2023-05-12T03:25:56.962Z,3.33
2023-05-12T03:28:27.622Z,3.28
2023-05-12T03:30:57.235Z,3.60
2023-05-12T03:33:25.353Z,3.53
2023-05-12T03:35:54.706Z,3.22
2023-05-12T03:38:23.097Z,3.25
2023-05-12T03:40:53.037Z,3.55
2023-05-12T03:43:22.412Z,3.30
2023-05-12T03:45:50.657Z,3.28
2023-05-12T03:48:18.752Z,3.83
2023-05-12T03:50:47.212Z,3.20
2023-05-12T03:53:15.431Z,3.13
2023-05-12T03:55:43.824Z,3.45
2023-05-12T03:58:12.025Z,3.38
2023-05-12T04:00:40.436Z,2.90
2023-05-12T04:03:08.643Z,3.45
2023-05-12T04:05:39.581Z,2.90
2023-05-12T04:08:07.680Z,3.30
2023-05-12T04:10:43.583Z,2.85
2023-05-12T04:13:12.820Z,3.00
2023-05-12T04:15:42.021Z,2.97
2023-05-12T04:18:10.298Z,2.75
2023-05-12T04:20:40.939Z,2.60
2023-05-12T04:23:09.022Z,2.90
2023-05-12T04:25:41.646Z,2.70
2023-05-12T04:28:12.278Z,2.67
2023-05-12T04:30:42.176Z,3.03
2023-05-12T04:33:10.692Z,2.78
2023-05-12T04:35:40.399Z,2.78
2023-05-12T04:38:12.929Z,2.70
2023-05-12T04:40:42.070Z,2.50
2023-05-12T04:43:59.940Z,2.40
2023-05-12T04:46:01.915Z,2.40
2023-05-12T04:48:31.161Z,2.45
2023-05-12T04:51:02.160Z,2.60
2023-05-12T04:53:34.810Z,2.65
2023-05-12T04:56:04.057Z,2.40
2023-05-12T04:58:38.492Z,2.85
2023-05-12T05:01:08.489Z,2.80
2023-05-12T05:03:36.764Z,2.25
2023-05-12T05:06:05.697Z,2.55
2023-05-12T05:08:34.627Z,2.60
2023-05-12T05:11:02.912Z,2.65
2023-05-12T05:13:33.112Z,2.72
2023-05-12T05:16:01.765Z,2.65
2023-05-12T05:18:30.323Z,2.40
2023-05-12T05:20:59.201Z,2.60
2023-05-12T05:23:28.486Z,2.38
2023-05-12T05:25:57.274Z,2.42
2023-05-12T05:28:26.775Z,2.78
2023-05-12T05:30:55.120Z,2.30
2023-05-12T05:33:23.865Z,3.08
2023-05-12T05:35:52.330Z,2.50
2023-05-12T05:38:21.161Z,2.88
2023-05-12T05:40:54.054Z,2.30
2023-05-12T05:43:24.603Z,2.22
2023-05-12T05:45:53.297Z,2.25
2023-05-12T05:48:23.000Z,2.45
2023-05-12T05:50:52.359Z,2.88
2023-05-12T05:53:22.795Z,2.30
2023-05-12T05:55:51.681Z,2.20
2023-05-12T05:58:19.696Z,2.65
2023-05-12T06:00:49.116Z,2.00
2023-05-12T06:03:17.327Z,1.92
2023-05-12T06:05:47.300Z,2.80
2023-05-12T06:08:15.551Z,2.50
2023-05-12T06:10:43.921Z,1.92
2023-05-12T06:13:12.161Z,2.00
2023-05-12T06:15:40.498Z,2.03
2023-05-12T06:18:08.918Z,2.40
2023-05-12T06:20:37.248Z,3.38
2023-05-12T06:23:06.045Z,2.33
2023-05-12T06:25:40.216Z,3.10
2023-05-12T06:28:11.769Z,2.28
2023-05-12T06:30:40.140Z,2.00
2023-05-12T06:33:08.337Z,1.90
2023-05-12T06:35:36.848Z,2.28
2023-05-12T06:38:06.769Z,1.90
2023-05-12T06:40:35.148Z,3.05
2023-05-12T06:43:03.460Z,1.83
2023-05-12T06:45:34.889Z,1.90
2023-05-12T06:48:05.845Z,2.30
2023-05-12T06:50:34.613Z,2.20
2023-05-12T06:53:02.782Z,1.75
2023-05-12T06:55:31.395Z,2.30
2023-05-12T06:57:59.718Z,2.58
2023-05-12T07:00:28.145Z,2.25
2023-05-12T07:02:56.526Z,1.70
2023-05-12T07:05:25.283Z,2.20
2023-05-12T07:07:53.358Z,1.90
2023-05-12T07:10:22.059Z,2.10
2023-05-12T07:12:50.269Z,1.70
2023-05-12T07:15:19.304Z,2.40
2023-05-12T07:17:47.549Z,1.90
2023-05-12T07:20:17.242Z,1.70
2023-05-12T07:22:45.533Z,2.28
2023-05-12T07:25:13.870Z,1.90
2023-05-12T07:27:42.414Z,1.70
2023-05-12T07:30:11.535Z,2.47
2023-05-12T07:32:39.405Z,2.13
2023-05-12T07:35:08.011Z,2.30
2023-05-12T07:37:36.057Z,2.25
2023-05-12T07:40:05.274Z,3.15
2023-05-12T07:42:33.464Z,1.92
2023-05-12T07:45:01.680Z,2.33
2023-05-12T07:47:29.628Z,2.17
2023-05-12T07:49:58.175Z,1.73
2023-05-12T07:52:26.407Z,1.65
2023-05-12T07:54:57.571Z,3.50
2023-05-12T07:57:25.699Z,2.25
2023-05-12T07:59:54.770Z,2.67
2023-05-12T08:02:23.155Z,2.28
2023-05-12T08:04:51.310Z,2.17
2023-05-12T08:07:19.204Z,1.80
2023-05-12T08:09:47.528Z,2.47
2023-05-12T08:12:15.709Z,1.80
2023-05-12T08:14:43.931Z,2.00
2023-05-12T08:17:12.405Z,1.83
2023-05-12T08:19:42.009Z,2.00
2023-05-12T08:22:09.938Z,1.85
2023-05-12T08:24:38.748Z,2.05
2023-05-12T08:27:06.947Z,2.00
2023-05-12T08:29:35.553Z,2.10
2023-05-12T08:32:04.455Z,1.95
2023-05-12T08:34:33.283Z,2.25
2023-05-12T08:37:01.535Z,1.90
2023-05-12T08:39:31.106Z,1.77
2023-05-12T08:42:21.733Z,3.47
2023-05-12T08:44:50.793Z,2.10
2023-05-12T08:47:20.483Z,2.00
2023-05-12T08:50:00.001Z,1.92
2023-05-12T08:52:33.535Z,2.10
2023-05-12T08:55:03.388Z,1.83
2023-05-12T08:57:33.273Z,2.00
2023-05-12T09:00:03.482Z,2.55
2023-05-12T09:02:52.224Z,2.30
2023-05-12T09:05:23.285Z,2.60
2023-05-12T09:07:55.060Z,2.58
2023-05-12T09:13:05.080Z,2.15
2023-05-12T09:15:41.947Z,2.00
2023-05-12T09:18:09.818Z,2.33
2023-05-12T09:20:38.593Z,2.55
2023-05-12T09:23:18.034Z,2.30
2023-05-12T09:25:49.489Z,1.80
2023-05-12T09:28:18.311Z,2.25
2023-05-12T09:30:47.010Z,2.35
2023-05-12T09:33:15.631Z,2.42
2023-05-12T09:35:46.201Z,2.10
2023-05-12T09:38:14.939Z,1.80
2023-05-12T09:40:43.659Z,1.80
2023-05-12T09:43:15.380Z,10.32
2023-05-12T09:45:46.386Z,2.40
2023-05-12T09:48:14.799Z,2.95
2023-05-12T09:50:51.562Z,1.70
2023-05-12T09:53:23.016Z,2.05
2023-05-12T09:55:52.085Z,2.10
2023-05-12T09:58:21.208Z,2.00
2023-05-12T10:01:17.614Z,2.05
2023-05-12T10:03:49.362Z,1.88
2023-05-12T10:06:36.705Z,2.22
2023-05-12T10:09:45.301Z,1.92
2023-05-12T10:12:14.193Z,1.90
2023-05-12T10:14:43.609Z,2.10
2023-05-12T10:17:12.687Z,1.77
2023-05-12T10:19:42.175Z,2.15
2023-05-12T10:22:14.354Z,2.05
2023-05-12T10:24:42.826Z,2.08
2023-05-12T10:27:12.264Z,2.22
2023-05-12T10:29:41.219Z,2.67
2023-05-12T10:32:10.741Z,2.03
2023-05-12T10:34:42.209Z,2.03
2023-05-12T10:37:11.649Z,3.58
2023-05-12T10:39:50.641Z,1.88
2023-05-12T10:42:27.006Z,2.10
2023-05-12T10:44:56.907Z,1.90
2023-05-12T10:47:38.946Z,2.50
2023-05-12T10:50:07.979Z,1.98
2023-05-12T10:52:38.487Z,1.77
2023-05-12T10:55:12.693Z,1.92
2023-05-12T10:57:50.668Z,2.28
2023-05-12T11:00:24.939Z,2.88
2023-05-12T11:02:55.793Z,2.00
2023-05-12T11:05:35.111Z,1.92
2023-05-12T11:08:04.780Z,1.70
2023-05-12T11:10:33.788Z,1.70
2023-05-12T11:13:03.964Z,2.42
2023-05-12T11:15:32.289Z,1.77
2023-05-12T11:18:03.234Z,1.80
2023-05-12T11:20:31.746Z,1.98
2023-05-12T11:23:00.213Z,2.10
2023-05-12T11:25:28.445Z,2.08
2023-05-12T11:27:57.564Z,1.70
2023-05-12T11:30:25.865Z,1.70
2023-05-12T11:33:04.058Z,1.73
2023-05-12T11:35:32.706Z,1.80
2023-05-12T11:38:03.080Z,1.80
2023-05-12T11:40:32.387Z,2.08
2023-05-12T11:43:10.181Z,1.98
2023-05-12T11:45:38.547Z,1.60
2023-05-12T11:48:09.219Z,2.13
2023-05-12T11:50:40.192Z,2.03
2023-05-12T11:53:14.909Z,2.10
2023-05-12T11:55:56.493Z,2.45
2023-05-12T11:58:30.731Z,1.63
2023-05-12T12:01:10.565Z,1.70
2023-05-12T12:03:47.934Z,2.17
2023-05-12T12:06:17.971Z,1.90
2023-05-12T12:08:58.033Z,2.60
2023-05-12T12:11:30.849Z,2.20
2023-05-12T12:13:59.468Z,2.17
2023-05-12T12:16:32.133Z,1.75
2023-05-12T12:19:00.758Z,2.45
2023-05-12T12:21:28.790Z,1.98
2023-05-12T12:23:59.133Z,2.30
2023-05-12T12:26:28.467Z,2.30
2023-05-12T12:28:56.904Z,2.63
2023-05-12T12:31:26.146Z,1.83
2023-05-12T12:33:54.587Z,2.08
2023-05-12T12:36:22.993Z,2.00
2023-05-12T12:38:51.488Z,2.85
2023-05-12T12:41:20.285Z,1.80
2023-05-12T12:43:48.525Z,2.00
2023-05-12T12:46:16.868Z,1.90
2023-05-12T12:48:45.254Z,2.45
2023-05-12T12:51:16.089Z,2.05
2023-05-12T12:53:45.777Z,2.20
2023-05-12T12:56:13.911Z,2.22
2023-05-12T12:58:42.262Z,2.20
2023-05-12T13:01:10.778Z,2.17
2023-05-12T13:03:39.155Z,2.30
2023-05-12T13:06:07.242Z,2.60
2023-05-12T13:08:35.976Z,2.00
2023-05-12T13:11:04.041Z,2.08
2023-05-12T13:13:32.553Z,1.90
2023-05-12T13:16:00.580Z,1.90
2023-05-12T13:18:28.877Z,2.10
2023-05-12T13:20:57.278Z,1.88
2023-05-12T13:23:25.654Z,1.90
2023-05-12T13:25:53.618Z,1.90
2023-05-12T13:28:22.867Z,1.90
2023-05-12T13:30:52.996Z,1.98
2023-05-12T13:33:22.006Z,2.25
2023-05-12T13:35:50.466Z,1.92
2023-05-12T13:38:20.004Z,2.20
2023-05-12T13:40:48.322Z,1.85
2023-05-12T13:43:16.442Z,2.00
2023-05-12T13:45:44.342Z,1.95
2023-05-12T13:48:12.673Z,1.90
2023-05-12T13:50:41.140Z,2.70
2023-05-12T13:53:09.298Z,2.13
2023-05-12T13:55:40.777Z,1.60
2023-05-12T13:58:09.453Z,2.30
2023-05-12T14:00:37.708Z,1.67
2023-05-12T14:03:06.236Z,1.83
2023-05-12T14:05:34.396Z,2.15
2023-05-12T14:08:03.037Z,2.15
2023-05-12T14:10:32.659Z,1.90
2023-05-12T14:13:01.275Z,1.52
2023-05-12T14:15:40.040Z,2.10
2023-05-12T14:18:14.722Z,1.67
2023-05-12T14:20:43.136Z,1.80
2023-05-12T14:23:11.741Z,3.22
2023-05-12T14:25:39.801Z,1.80
2023-05-12T14:28:08.545Z,9.48
2023-05-12T14:30:37.544Z,24.35
2023-05-12T14:33:06.593Z,17.70
2023-05-12T14:35:34.841Z,47.83
2023-05-12T14:38:03.351Z,6.68
2023-05-12T14:40:31.615Z,2.95
2023-05-12T14:43:00.189Z,8.95
2023-05-12T14:45:29.133Z,24.65
2023-05-12T14:47:57.862Z,17.63
2023-05-12T14:50:26.143Z,20.27
2023-05-12T14:52:54.837Z,3.63
2023-05-12T14:55:23.166Z,17.42
2023-05-12T14:57:51.911Z,22.20
2023-05-12T15:00:21.355Z,18.40
2023-05-12T15:02:49.596Z,34.90
2023-05-12T15:05:17.942Z,6.97
2023-05-12T15:07:46.382Z,2.08
2023-05-12T15:10:14.634Z,2.00
2023-05-12T15:12:42.838Z,1.80
2023-05-12T15:15:12.303Z,2.72
2023-05-12T15:17:40.842Z,2.75
2023-05-12T15:20:10.046Z,5.88
2023-05-12T15:22:38.587Z,1.88
2023-05-12T15:25:07.169Z,2.30
2023-05-12T15:27:35.439Z,1.70
2023-05-12T15:30:03.809Z,2.08
2023-05-12T15:32:32.694Z,4.90
2023-05-12T15:35:00.779Z,3.10
2023-05-12T15:37:29.094Z,2.10
2023-05-12T15:39:57.238Z,4.35
2023-05-12T15:42:29.944Z,2.10
2023-05-12T15:45:00.951Z,2.17
2023-05-12T15:47:29.654Z,2.38
2023-05-12T15:49:57.681Z,2.90
2023-05-12T15:52:27.994Z,2.20
2023-05-12T15:54:56.337Z,2.20
2023-05-12T15:57:24.961Z,2.20
2023-05-12T15:59:59.838Z,3.10
2023-05-12T16:02:28.286Z,2.03
2023-05-12T16:04:57.538Z,2.47
2023-05-12T16:07:29.622Z,2.72
2023-05-12T16:09:58.380Z,3.15
2023-05-12T16:12:26.549Z,2.83
2023-05-12T16:14:54.497Z,1.90
2023-05-12T16:17:23.070Z,2.00
2023-05-12T16:19:53.379Z,2.63
2023-05-12T16:22:21.750Z,3.03
2023-05-12T16:24:49.839Z,4.80
2023-05-12T16:27:18.138Z,2.10
2023-05-12T16:29:48.111Z,2.30
2023-05-12T16:32:17.531Z,3.42
2023-05-12T16:34:45.866Z,2.58
2023-05-12T16:37:15.228Z,2.70
2023-05-12T16:39:43.492Z,3.65
2023-05-12T16:42:11.875Z,5.97
2023-05-12T16:44:40.152Z,2.80
2023-05-12T16:47:09.730Z,4.40
2023-05-12T16:49:54.299Z,4.40
2023-05-12T16:52:23.267Z,12.93
2023-05-12T16:54:51.937Z,4.80
2023-05-12T16:57:21.222Z,4.32
2023-05-12T16:59:49.512Z,2.38
2023-05-12T17:02:18.215Z,2.53
2023-05-12T17:04:46.771Z,4.20
2023-05-12T17:07:15.290Z,3.72
2023-05-12T17:09:43.313Z,2.40
2023-05-12T17:12:11.644Z,3.22
2023-05-12T17:14:40.790Z,2.40
2023-05-12T17:17:09.323Z,2.47
2023-05-12T17:19:42.045Z,4.50
2023-05-12T17:22:11.311Z,3.53
2023-05-12T17:24:39.292Z,3.30
2023-05-12T17:27:08.066Z,4.47
2023-05-12T17:29:36.219Z,2.65
2023-05-12T17:32:05.703Z,3.78
2023-05-12T17:34:33.582Z,2.25
2023-05-12T17:37:03.920Z,4.22
2023-05-12T17:39:32.323Z,9.27
2023-05-12T17:42:01.030Z,5.18
2023-05-12T17:44:30.087Z,8.55
2023-05-12T17:46:58.464Z,5.15
2023-05-12T17:49:26.666Z,4.03
2023-05-12T17:51:56.024Z,4.60
2023-05-12T17:54:24.511Z,3.75
2023-05-12T17:56:53.196Z,4.20
2023-05-12T17:59:21.570Z,5.00
2023-05-12T18:01:51.465Z,5.60
2023-05-12T18:04:19.784Z,5.53
2023-05-12T18:06:50.275Z,8.15
2023-05-12T18:09:18.356Z,11.02
2023-05-12T18:11:47.663Z,8.45
2023-05-12T18:14:16.484Z,9.05
2023-05-12T18:16:44.812Z,5.60
2023-05-12T18:19:13.221Z,5.05
2023-05-12T18:21:41.612Z,15.05
2023-05-12T18:24:09.798Z,9.15
2023-05-12T18:26:38.460Z,6.25
2023-05-12T18:29:06.274Z,8.32
2023-05-12T18:31:36.240Z,14.57
2023-05-12T18:34:04.481Z,17.42
2023-05-12T18:36:32.743Z,29.13
2023-05-12T18:39:01.172Z,8.07
2023-05-12T18:41:29.217Z,29.00
2023-05-12T18:43:57.321Z,12.40
2023-05-12T18:46:26.165Z,9.30
2023-05-12T18:48:54.254Z,9.27
2023-05-12T18:51:22.762Z,8.30
2023-05-12T18:53:51.068Z,5.68
2023-05-12T18:56:19.343Z,4.90
2023-05-12T18:58:47.284Z,7.05
2023-05-12T19:01:17.138Z,5.00
2023-05-12T19:03:45.481Z,4.63
2023-05-12T19:06:14.138Z,4.30
2023-05-12T19:08:42.190Z,4.10
2023-05-12T19:11:10.497Z,4.22
2023-05-12T19:13:42.450Z,4.70
2023-05-12T19:16:11.130Z,5.13
2023-05-12T19:18:39.103Z,5.75
2023-05-12T19:21:07.479Z,4.15
2023-05-12T19:23:35.386Z,4.82
2023-05-12T19:26:04.340Z,3.58
2023-05-12T19:28:32.193Z,4.65
2023-05-12T19:31:00.622Z,5.60
2023-05-12T19:33:29.479Z,3.95
2023-05-12T19:35:58.027Z,3.65
2023-05-12T19:38:26.347Z,3.92
2023-05-12T19:40:55.949Z,4.70
2023-05-12T19:43:23.908Z,3.90
2023-05-12T19:45:52.443Z,3.78
2023-05-12T19:48:23.194Z,4.00
2023-05-12T19:50:59.706Z,4.22
2023-05-12T19:53:28.785Z,5.10
2023-05-12T19:55:56.923Z,4.47
2023-05-12T19:58:24.734Z,4.43
2023-05-12T20:00:54.449Z,4.95
2023-05-12T20:03:22.674Z,11.75
2023-05-12T20:05:51.612Z,4.45
2023-05-12T20:08:19.856Z,4.70
2023-05-12T20:10:48.350Z,4.40
2023-05-12T20:13:16.527Z,4.85
2023-05-12T20:15:44.796Z,6.93
2023-05-12T20:18:15.601Z,5.13
2023-05-12T20:20:44.243Z,4.38
2023-05-12T20:23:12.326Z,4.53
2023-05-12T20:25:40.686Z,9.20
2023-05-12T20:28:11.779Z,9.60
2023-05-12T20:30:41.824Z,5.00
2023-05-12T20:33:10.375Z,4.78
2023-05-12T20:35:39.250Z,8.15
2023-05-12T20:38:07.425Z,20.35
2023-05-12T20:40:38.791Z,7.03
2023-05-12T20:43:07.361Z,5.10
2023-05-12T20:45:37.522Z,5.97
2023-05-12T20:48:07.031Z,5.07
2023-05-12T20:50:35.494Z,4.15
2023-05-12T20:53:04.891Z,4.18
2023-05-12T20:55:33.778Z,5.32
2023-05-12T20:58:01.883Z,4.22
2023-05-12T21:00:30.263Z,4.35
2023-05-12T21:02:59.156Z,6.07
2023-05-12T21:05:27.488Z,3.97
2023-05-12T21:07:55.566Z,4.80
2023-05-12T21:10:24.066Z,4.65
2023-05-12T21:12:52.093Z,4.25
2023-05-12T21:15:20.678Z,3.95
2023-05-12T21:17:48.652Z,4.28
2023-05-12T21:20:16.987Z,6.50
2023-05-12T21:22:45.295Z,20.40
2023-05-12T21:25:13.916Z,6.80
2023-05-12T21:27:42.017Z,31.25
2023-05-12T21:30:10.877Z,24.98
2023-05-12T21:32:39.883Z,18.88
2023-05-12T21:35:08.242Z,18.75
2023-05-12T21:37:36.445Z,16.30
2023-05-12T21:40:05.512Z,22.65
2023-05-12T21:42:33.412Z,20.40
2023-05-12T21:45:02.146Z,27.33
2023-05-12T21:47:30.035Z,37.35
2023-05-12T21:49:58.336Z,39.35
2023-05-12T21:52:26.510Z,21.08
2023-05-12T21:54:54.782Z,57.65
2023-05-12T21:57:23.000Z,53.92
2023-05-12T21:59:51.582Z,20.35
2023-05-12T22:02:19.657Z,21.52
2023-05-12T22:04:48.140Z,12.95
2023-05-12T22:07:16.167Z,19.92
2023-05-12T22:09:44.728Z,24.15
2023-05-12T22:12:21.539Z,19.83
2023-05-12T22:14:49.834Z,21.23
2023-05-12T22:17:17.789Z,15.32
2023-05-12T22:19:46.271Z,33.03
2023-05-12T22:22:14.328Z,28.73
2023-05-12T22:24:44.028Z,27.95
2023-05-12T22:27:11.952Z,21.60
2023-05-12T22:29:40.340Z,17.65
2023-05-12T22:32:08.256Z,18.70
2023-05-12T22:34:36.399Z,23.52
2023-05-12T22:37:04.590Z,31.80
2023-05-12T22:39:33.259Z,23.92
2023-05-12T22:42:01.189Z,19.20
2023-05-12T22:44:29.839Z,19.00
2023-05-12T22:46:58.151Z,25.50
2023-05-12T22:49:26.813Z,22.02
2023-05-12T22:51:54.729Z,22.65
2023-05-12T22:54:23.016Z,25.30
2023-05-12T22:56:50.870Z,23.60
2023-05-12T22:59:19.087Z,24.50
2023-05-12T23:01:47.018Z,23.73
2023-05-12T23:04:15.523Z,33.03
2023-05-12T23:06:43.605Z,21.52
2023-05-12T23:09:11.958Z,25.20
2023-05-12T23:11:39.918Z,15.15
2023-05-12T23:14:08.992Z,16.98
2023-05-12T23:16:37.040Z,8.25
2023-05-12T23:19:05.458Z,5.80
2023-05-12T23:21:33.472Z,6.50
2023-05-12T23:24:01.895Z,8.73
2023-05-12T23:26:29.910Z,6.70
2023-05-12T23:28:58.044Z,6.32
2023-05-12T23:31:26.128Z,6.55
2023-05-12T23:33:54.491Z,6.15
2023-05-12T23:36:22.419Z,10.23
2023-05-12T23:38:54.600Z,11.43
2023-05-12T23:41:22.873Z,15.77
2023-05-12T23:43:51.139Z,13.20
2023-05-12T23:46:19.180Z,19.45
2023-05-12T23:48:47.585Z,16.77
2023-05-12T23:51:15.554Z,19.90
2023-05-12T23:53:43.999Z,16.90
2023-05-12T23:56:12.295Z,12.32
2023-05-12T23:58:40.814Z,7.35
